Aviation Digital Data Service (ADDS)

Output produced by METARs form (1849 UTC 26 March 2017)
found at http://aviationweather.gov/adds/metars/
 
KGON 261802Z 2618/2718 10010KT P6SM OVC045 
     FM270300 07008KT P6SM OVC035 
     FM270500 07006KT P6SM OVC025 
     FM270700 08006KT 4SM BR OVC015 
     FM270900 08006KT 2SM -RA BR OVC008 
     FM271300 11007KT 1SM -RA BR OVC004 
     FM271600 15007KT 2SM -RA BR OVC006